createdAt,value
2022-07-29T00:00:40.636Z,44.9
2022-07-29T00:02:31.884Z,44.7
2022-07-29T00:06:51.258Z,44.4
2022-07-29T00:08:42.450Z,44.6
2022-07-29T00:10:33.631Z,44.8
2022-07-29T00:14:53.073Z,44.7
2022-07-29T00:21:40.741Z,45.1
2022-07-29T00:23:36.467Z,44.9
2022-07-29T00:26:00.189Z,44.6
2022-07-29T00:27:51.384Z,45.7
2022-07-29T00:29:42.554Z,45.2
2022-07-29T00:31:33.842Z,45.7
2022-07-29T00:35:53.180Z,44.9
2022-07-29T00:36:30.241Z,44.8
2022-07-29T00:42:40.855Z,44.5
2022-07-29T00:44:32.030Z,45.1
2022-07-29T00:48:51.533Z,46
2022-07-29T00:50:42.663Z,45.5
2022-07-29T00:52:33.846Z,45.6
2022-07-29T00:56:53.277Z,44.5
2022-07-29T00:57:30.345Z,45.3
2022-07-29T01:03:40.966Z,46
2022-07-29T01:05:49.860Z,46.1
2022-07-29T01:09:51.595Z,46.2
2022-07-29T01:11:42.767Z,45.8
2022-07-29T01:13:33.950Z,46.1
2022-07-29T01:17:53.928Z,45.5
2022-07-29T01:18:30.457Z,45.4
2022-07-29T01:24:41.077Z,47
2022-07-29T01:27:50.482Z,46.6
2022-07-29T01:29:41.675Z,46.4
2022-07-29T01:31:32.976Z,46.5
2022-07-29T01:34:01.120Z,46.7
2022-07-29T01:35:52.296Z,46.4
2022-07-29T01:39:34.667Z,47
2022-07-29T01:44:31.171Z,47.4
2022-07-29T01:48:50.673Z,47.5
2022-07-29T01:50:41.783Z,47.8
2022-07-29T01:52:32.963Z,47.6
2022-07-29T01:56:52.444Z,47
2022-07-29T02:00:34.765Z,47.3
2022-07-29T02:05:31.370Z,46.9
2022-07-29T02:09:50.703Z,47.1
2022-07-29T02:13:33.067Z,47.2
2022-07-29T02:17:52.535Z,46.7
2022-07-29T02:21:34.921Z,47.3
2022-07-29T02:24:40.197Z,47.2
2022-07-29T02:26:31.387Z,47.8
2022-07-29T02:30:50.912Z,48.4
2022-07-29T02:32:41.997Z,48.6
2022-07-29T02:34:33.182Z,39.3
2022-07-29T02:42:35.002Z,49.3
2022-07-29T02:45:40.307Z,48.6
2022-07-29T02:47:31.506Z,49.3
2022-07-29T02:51:50.927Z,49.8
2022-07-29T02:53:42.110Z,50.3
2022-07-29T02:55:33.306Z,49.7
2022-07-29T02:59:52.727Z,50
2022-07-29T03:03:35.102Z,49.7
2022-07-29T03:06:40.411Z,50.8
2022-07-29T03:08:31.634Z,50.6
2022-07-29T03:12:51.042Z,51.3
2022-07-29T03:14:42.243Z,50.4
2022-07-29T03:16:36.867Z,50.6
2022-07-29T03:20:52.840Z,50.9
2022-07-29T03:27:40.523Z,51.7
2022-07-29T03:29:33.771Z,51.6
2022-07-29T03:33:51.151Z,51.6
2022-07-29T03:37:33.519Z,51.9
2022-07-29T03:48:40.674Z,52.3
2022-07-29T03:50:31.822Z,52.3
2022-07-29T03:54:51.263Z,52.8
2022-07-29T03:58:33.617Z,52.7
2022-07-29T04:05:50.179Z,53.7
2022-07-29T04:07:41.360Z,53.4
2022-07-29T04:09:32.553Z,53.6
2022-07-29T04:12:03.224Z,54.5
2022-07-29T04:13:51.995Z,53.3
2022-07-29T04:15:43.228Z,53.9
2022-07-29T04:17:34.364Z,54.4
2022-07-29T04:22:30.867Z,54.3
2022-07-29T04:26:50.288Z,54.7
2022-07-29T04:28:41.484Z,54.7
2022-07-29T04:30:32.664Z,54.8
2022-07-29T04:33:00.923Z,58.1
2022-07-29T04:34:52.099Z,59.2
2022-07-29T04:36:43.289Z,59.3
2022-07-29T04:38:34.467Z,61
2022-07-29T04:43:30.968Z,61.3
2022-07-29T04:47:50.399Z,63.2
2022-07-29T04:49:41.587Z,63.3
2022-07-29T04:51:32.786Z,62.8
2022-07-29T04:54:01.019Z,62.9
2022-07-29T04:55:52.216Z,62.9
2022-07-29T04:59:34.590Z,63.7
2022-07-29T05:04:31.083Z,62.8
2022-07-29T05:08:50.512Z,64.1
2022-07-29T05:10:41.697Z,63.4
2022-07-29T05:12:32.877Z,63.9
2022-07-29T05:15:01.133Z,63.4
2022-07-29T05:16:52.318Z,62.6
2022-07-29T05:20:34.697Z,63.3
2022-07-29T05:25:44.283Z,63.7
2022-07-29T05:29:50.623Z,62.4
2022-07-29T05:31:41.813Z,62.1
2022-07-29T05:33:36.451Z,61.9
2022-07-29T05:36:01.355Z,60.5
2022-07-29T05:37:52.439Z,60.5
2022-07-29T05:41:34.814Z,61.3
2022-07-29T05:45:54.313Z,59.7
2022-07-29T05:50:50.734Z,63.9
2022-07-29T05:54:33.112Z,63.6
2022-07-29T05:57:01.355Z,62.1
2022-07-29T06:05:40.223Z,62.8
2022-07-29T06:11:50.842Z,63.1
2022-07-29T06:15:33.362Z,62.2
2022-07-29T06:18:02.303Z,61.2
2022-07-29T06:26:40.331Z,63.1
2022-07-29T06:32:50.948Z,62.4
2022-07-29T06:36:33.309Z,63.2
2022-07-29T06:47:40.437Z,69.9
2022-07-29T06:54:00.423Z,69.7
2022-07-29T06:55:42.241Z,70.3
2022-07-29T06:57:33.425Z,69.7
2022-07-29T07:00:01.699Z,67.4
2022-07-29T07:01:52.879Z,66.4
2022-07-29T07:05:35.234Z,66.6
2022-07-29T07:08:40.541Z,67.1
2022-07-29T07:10:31.759Z,67.1
2022-07-29T07:14:51.158Z,67.9
2022-07-29T07:16:42.464Z,66.5
2022-07-29T07:18:33.555Z,66.9
2022-07-29T07:21:01.772Z,65.8
2022-07-29T07:22:52.978Z,65.6
2022-07-29T07:26:35.336Z,65.5
2022-07-29T07:29:40.657Z,65.5
2022-07-29T07:41:53.701Z,65.5
2022-07-29T07:42:30.757Z,65.5
2022-07-29T07:46:50.197Z,65.8
2022-07-29T07:50:32.556Z,66.3
2022-07-29T07:53:00.821Z,64.6
2022-07-29T07:54:52.032Z,62.8
2022-07-29T07:58:34.376Z,63.4
2022-07-29T08:03:30.870Z,61.6
2022-07-29T08:07:50.393Z,62.3
2022-07-29T08:11:34.004Z,62.8
2022-07-29T08:14:00.935Z,59.2
2022-07-29T08:15:52.105Z,60.2
2022-07-29T08:19:34.489Z,59.4
2022-07-29T08:24:30.979Z,62.4
2022-07-29T08:28:50.454Z,61.3
2022-07-29T08:35:01.039Z,61.8
2022-07-29T08:36:52.217Z,62.1
2022-07-29T08:38:43.406Z,61.7
2022-07-29T08:40:34.600Z,61.4
2022-07-29T08:45:31.112Z,64.2
2022-07-29T08:49:50.524Z,64.3
2022-07-29T08:53:32.923Z,66.5
2022-07-29T08:56:01.138Z,67.7
2022-07-29T08:57:54.567Z,68.6
2022-07-29T09:01:36.090Z,69.8
2022-07-29T09:06:31.193Z,71
2022-07-29T09:10:50.624Z,71.3
2022-07-29T09:14:33.006Z,72
2022-07-29T09:17:01.882Z,71.9
2022-07-29T09:18:52.438Z,70.8
2022-07-29T09:22:37.716Z,70.9
2022-07-29T09:27:31.310Z,70.7
2022-07-29T09:31:50.832Z,71.7
2022-07-29T09:33:41.933Z,72.4
2022-07-29T09:36:10.177Z,74.2
2022-07-29T09:37:53.162Z,74.9
2022-07-29T09:38:30.234Z,74.1
2022-07-29T09:44:40.861Z,76.1
2022-07-29T09:46:32.136Z,77
2022-07-29T09:49:00.343Z,75.6
2022-07-29T09:50:51.465Z,76.4
2022-07-29T09:54:33.841Z,75.3
2022-07-29T09:57:02.109Z,75.8
2022-07-29T09:58:53.282Z,75.7
2022-07-29T09:59:30.347Z,75.8
2022-07-29T10:05:40.965Z,73.2
2022-07-29T10:07:32.156Z,73.1
2022-07-29T10:10:00.405Z,72.1
2022-07-29T10:11:51.597Z,71.8
2022-07-29T10:15:33.959Z,71.3
2022-07-29T10:20:30.457Z,71.7
2022-07-29T10:28:32.272Z,73.3
2022-07-29T10:31:00.578Z,72
2022-07-29T10:32:54.226Z,71.4
2022-07-29T10:36:34.074Z,71.3
2022-07-29T10:40:53.498Z,69.7
2022-07-29T10:41:32.490Z,69.9
2022-07-29T10:49:32.424Z,68.8
2022-07-29T10:52:00.759Z,68.6
2022-07-29T10:53:51.805Z,67.4
2022-07-29T10:57:54.437Z,67.7
2022-07-29T11:10:32.478Z,67.6
2022-07-29T11:13:00.734Z,67.6
2022-07-29T11:14:51.911Z,67.6
2022-07-29T11:18:34.292Z,67.7
2022-07-29T11:22:53.713Z,64.2
2022-07-29T11:23:33.686Z,66.7
2022-07-29T11:27:50.217Z,62
2022-07-29T11:31:32.588Z,60.9
2022-07-29T11:34:05.525Z,59.2
2022-07-29T11:37:45.713Z,60.5
2022-07-29T11:40:40.321Z,59.8
2022-07-29T11:42:34.560Z,57.8
2022-07-29T11:48:50.388Z,53.6
2022-07-29T11:52:32.705Z,54.9
2022-07-29T11:55:00.950Z,54.4
2022-07-29T11:56:52.126Z,51.7
2022-07-29T12:00:34.512Z,50.4
2022-07-29T12:05:36.224Z,48.3
2022-07-29T12:09:50.437Z,50.8
2022-07-29T12:13:37.720Z,51.4
2022-07-29T12:16:01.140Z,50.3
2022-07-29T12:17:52.234Z,48.2
2022-07-29T12:21:34.619Z,48
2022-07-29T12:26:31.111Z,47.8
2022-07-29T12:30:51.755Z,48.8
2022-07-29T12:34:32.921Z,48.3
2022-07-29T12:37:01.178Z,48.2
2022-07-29T12:38:52.351Z,48.4
2022-07-29T12:42:34.753Z,47.8
2022-07-29T12:47:31.230Z,50.1
2022-07-29T12:51:50.673Z,50.7
2022-07-29T12:55:33.038Z,51.2
2022-07-29T12:58:01.281Z,51.7
2022-07-29T12:59:52.479Z,51.6
2022-07-29T13:03:35.907Z,52.9
2022-07-29T13:08:31.340Z,54.1
2022-07-29T13:12:50.779Z,53.5
2022-07-29T13:16:33.158Z,52.9
2022-07-29T13:19:01.389Z,52.7
2022-07-29T13:20:52.585Z,52.8
2022-07-29T13:24:34.953Z,52.9
2022-07-29T13:27:40.259Z,52.3
2022-07-29T13:29:31.854Z,51.5
2022-07-29T13:33:50.882Z,50.1
2022-07-29T13:37:33.259Z,50.3
2022-07-29T13:40:01.497Z,51.2
2022-07-29T13:41:52.679Z,51.7
2022-07-29T13:46:40.989Z,51.5
2022-07-29T13:48:32.183Z,50
2022-07-29T13:51:00.426Z,48.6
2022-07-29T13:52:51.616Z,49.6
2022-07-29T13:54:42.910Z,50
2022-07-29T13:56:33.990Z,49.7
2022-07-29T14:00:53.510Z,52.9
2022-07-29T14:01:30.540Z,53.2
2022-07-29T14:09:41.290Z,51.5
2022-07-29T14:12:00.948Z,51
2022-07-29T14:13:51.754Z,50.2
2022-07-29T14:16:57.093Z,50.1
2022-07-29T14:17:34.090Z,49.7
2022-07-29T14:21:53.535Z,50.7
2022-07-29T14:22:30.596Z,50
2022-07-29T14:30:32.403Z,48.3
2022-07-29T14:33:00.667Z,49.2
2022-07-29T14:34:51.858Z,49.7
2022-07-29T14:38:34.214Z,49.4
2022-07-29T14:42:53.650Z,49.9
2022-07-29T14:43:30.702Z,50.1
2022-07-29T14:51:32.659Z,48.8
2022-07-29T14:54:00.770Z,50.2
2022-07-29T14:55:51.945Z,49.4
2022-07-29T14:59:34.324Z,49.4
2022-07-29T15:02:03.298Z,48.6
2022-07-29T15:03:57.979Z,47.9
2022-07-29T15:04:30.821Z,48.1
2022-07-29T15:08:50.247Z,47.4
2022-07-29T15:12:32.625Z,46.6
2022-07-29T15:15:00.884Z,46.7
2022-07-29T15:16:52.786Z,45.5
2022-07-29T15:20:34.458Z,45.7
2022-07-29T15:24:53.872Z,45.1
2022-07-29T15:25:30.938Z,46.2
2022-07-29T15:29:50.366Z,44.6
2022-07-29T15:33:32.753Z,45.6
2022-07-29T15:36:00.988Z,46.6
2022-07-29T15:37:52.197Z,46.1
2022-07-29T15:41:34.556Z,45.6
2022-07-29T15:46:22.897Z,46.7
2022-07-29T15:48:51.155Z,47.1
2022-07-29T15:52:33.478Z,49.5
2022-07-29T16:00:35.358Z,46.9
2022-07-29T16:03:45.714Z,47.5
2022-07-29T16:05:31.786Z,47
2022-07-29T16:09:53.329Z,48.4
2022-07-29T16:13:33.586Z,48.2
2022-07-29T16:18:01.219Z,48.2
2022-07-29T16:19:52.401Z,46.1
2022-07-29T16:21:51.790Z,46.5
2022-07-29T16:24:57.098Z,47.7
2022-07-29T16:28:10.607Z,47.7
2022-07-29T16:30:01.965Z,46.9
2022-07-29T16:35:39.136Z,47.8
2022-07-29T16:38:40.650Z,46.9
2022-07-29T16:40:31.848Z,46.3
2022-07-29T16:44:51.275Z,46.5
2022-07-29T16:48:33.656Z,46.6
2022-07-29T16:51:01.898Z,45.6
2022-07-29T16:59:43.426Z,45
2022-07-29T17:01:32.032Z,45.1
2022-07-29T17:04:00.824Z,47.1
2022-07-29T17:05:53.911Z,47.1
2022-07-29T17:09:33.776Z,47.1
2022-07-29T17:14:30.244Z,45
2022-07-29T17:20:40.871Z,45.3
2022-07-29T17:22:32.059Z,46
2022-07-29T17:25:00.306Z,45.4
2022-07-29T17:26:51.514Z,45.6
2022-07-29T17:30:33.868Z,45.3
2022-07-29T17:34:53.331Z,44.1
2022-07-29T17:35:30.367Z,44.9
2022-07-29T17:41:40.989Z,45.7
2022-07-29T17:46:00.421Z,45.8
2022-07-29T17:47:51.611Z,45.4
2022-07-29T17:51:33.989Z,45.6
2022-07-29T17:55:53.413Z,44.8
2022-07-29T17:56:30.506Z,45.2
2022-07-29T18:02:33.088Z,46.7
2022-07-29T18:05:01.161Z,47
2022-07-29T18:06:52.339Z,47.5
2022-07-29T18:08:43.527Z,47.8
2022-07-29T18:10:34.715Z,47.6
2022-07-29T18:15:31.209Z,46.9
2022-07-29T18:19:50.658Z,47.2
2022-07-29T18:23:33.027Z,47.6
2022-07-29T18:26:01.273Z,48
2022-07-29T18:27:52.782Z,47.9
2022-07-29T18:31:34.966Z,47.7
2022-07-29T18:36:31.332Z,48
2022-07-29T18:40:50.758Z,48.4
2022-07-29T18:44:33.129Z,48.7
2022-07-29T18:47:01.785Z,48.7
2022-07-29T18:49:00.871Z,49
2022-07-29T18:50:51.953Z,48.7
2022-07-29T18:54:34.329Z,49
2022-07-29T18:58:53.785Z,48.8
2022-07-29T18:59:30.825Z,48.8
2022-07-29T19:03:50.257Z,49.5
2022-07-29T19:07:32.635Z,49.9
2022-07-29T19:10:00.883Z,50.6
2022-07-29T19:15:34.446Z,50.9
2022-07-29T19:20:30.947Z,50.7
2022-07-29T19:24:50.369Z,52.1
2022-07-29T19:31:01.062Z,52
2022-07-29T19:32:52.177Z,52.7
2022-07-29T19:36:34.551Z,53.3
2022-07-29T19:40:53.986Z,54
2022-07-29T19:41:31.049Z,54.4
2022-07-29T19:45:50.481Z,52.3
2022-07-29T19:49:32.855Z,53.2
2022-07-29T19:52:01.108Z,53.8
2022-07-29T19:57:40.576Z,55.2
2022-07-29T20:02:31.214Z,55
2022-07-29T20:04:51.217Z,55.4
2022-07-29T20:08:33.585Z,47.1
2022-07-29T20:19:40.716Z,56.8
2022-07-29T20:21:31.891Z,56.7
2022-07-29T20:24:00.151Z,56.9
2022-07-29T20:25:51.316Z,56.3
2022-07-29T20:29:33.698Z,55.7
2022-07-29T20:32:01.959Z,56.8
2022-07-29T20:34:30.198Z,57
2022-07-29T20:37:52.004Z,56.1
2022-07-29T20:40:40.829Z,56.2
2022-07-29T20:42:32.029Z,56.5
2022-07-29T20:45:00.258Z,57.2
2022-07-29T20:46:51.454Z,57
2022-07-29T20:50:33.821Z,57
2022-07-29T20:55:30.306Z,58.2
2022-07-29T20:58:35.624Z,59.5
2022-07-29T21:01:40.997Z,60.6
2022-07-29T21:09:34.563Z,60.4
2022-07-29T21:14:31.055Z,60.5
2022-07-29T21:18:50.488Z,60.7
2022-07-29T21:22:32.859Z,60.1
2022-07-29T21:25:01.112Z,59.2
2022-07-29T21:30:34.671Z,60.3
2022-07-29T21:36:06.646Z,61
2022-07-29T21:39:50.598Z,60.5
2022-07-29T21:43:32.970Z,60.6
2022-07-29T21:46:01.278Z,61.3
2022-07-29T21:51:34.780Z,62.7
2022-07-29T21:56:31.417Z,63.6
2022-07-29T22:00:50.712Z,63.5
2022-07-29T22:02:41.901Z,63.1
2022-07-29T22:04:33.156Z,63.3
2022-07-29T22:07:01.775Z,62.5
2022-07-29T22:12:34.895Z,62.5
2022-07-29T22:15:44.123Z,61.6
2022-07-29T22:17:31.405Z,61.4
2022-07-29T22:21:50.820Z,63.1
2022-07-29T22:25:33.194Z,63.1
2022-07-29T22:28:01.461Z,61.5
2022-07-29T22:33:35.000Z,61.4
2022-07-29T22:36:40.317Z,61.6
2022-07-29T22:38:31.517Z,62
2022-07-29T22:42:50.972Z,60.4
2022-07-29T22:49:30.422Z,61.9
2022-07-29T22:52:35.741Z,61.9
2022-07-29T22:55:41.046Z,61.8
2022-07-29T22:57:32.230Z,61.5
2022-07-29T23:00:00.486Z,61.6
2022-07-29T23:05:34.033Z,61.4
2022-07-29T23:10:30.530Z,62.1
2022-07-29T23:16:41.215Z,62.3
2022-07-29T23:18:32.335Z,62
2022-07-29T23:21:00.591Z,61.8
2022-07-29T23:26:34.156Z,62.1
2022-07-29T23:31:30.654Z,62
2022-07-29T23:37:41.266Z,62.7
2022-07-29T23:39:32.448Z,62.7
2022-07-29T23:42:00.705Z,63.1
2022-07-29T23:43:51.905Z,63.7
2022-07-29T23:47:34.253Z,63.3
2022-07-29T23:52:30.756Z,62.5
2022-07-29T23:56:50.188Z,62.5
